Time;durP1;ratioP1;P1;durP2;ratioP2;P2;SDS_P1;SDS_P2;PMS_P1;PMS_P2;Temp;Humidity;BMP_temperature;BMP_pressure;BME280_temperature;BME280_humidity;BME280_pressure;Samples;Min_cycle;Max_cycle;Signal;HPM_P1;HPM_P2
2022/03/07 00:00:02;;;;;;;8.73;5.50;;;;;;;;;;5012345;28;20422;-88
2022/03/07 00:02:27;;;;;;;8.88;5.03;;;;;;;;;;5014260;28;20025;-87
2022/03/07 00:04:52;;;;;;;9.35;5.63;;;;;;;;;;5011631;28;20037;-84
2022/03/07 00:07:18;;;;;;;7.53;5.35;;;;;;;;;;5013431;28;20060;-84
2022/03/07 00:09:43;;;;;;;7.68;5.63;;;;;;;;;;5029966;28;20032;-84
2022/03/07 00:12:09;;;;;;;9.25;6.05;;;;;;;;;;5007634;28;20025;-85
2022/03/07 00:14:34;;;;;;;8.45;5.47;;;;;;;;;;5012198;28;20208;-87
2022/03/07 00:16:59;;;;;;;8.20;5.43;;;;;;;;;;5029117;28;20037;-88
2022/03/07 00:19:25;;;;;;;8.02;5.90;;;;;;;;;;5012388;28;20048;-84
2022/03/07 00:21:50;;;;;;;8.68;5.47;;;;;;;;;;5011918;28;20112;-87
2022/03/07 00:24:15;;;;;;;8.75;5.63;;;;;;;;;;5013458;28;20047;-86
2022/03/07 00:26:41;;;;;;;7.93;5.40;;;;;;;;;;5008506;28;20025;-83
2022/03/07 00:29:06;;;;;;;8.35;5.55;;;;;;;;;;5014369;28;20029;-87
2022/03/07 00:31:31;;;;;;;9.25;5.60;;;;;;;;;;5007655;28;20033;-84
2022/03/07 00:33:57;;;;;;;10.55;5.97;;;;;;;;;;5017695;28;20049;-88
2022/03/07 00:36:22;;;;;;;9.30;5.53;;;;;;;;;;5030152;28;20033;-88
2022/03/07 00:38:48;;;;;;;9.35;5.07;;;;;;;;;;5034187;28;20057;-84
2022/03/07 00:41:16;;;;;;;8.50;5.82;;;;;;;;;;5026146;28;20169;-89
2022/03/07 00:43:42;;;;;;;10.38;5.30;;;;;;;;;;5024178;28;20037;-88
2022/03/07 00:46:08;;;;;;;8.70;6.00;;;;;;;;;;5030198;28;20034;-88
2022/03/07 00:48:33;;;;;;;8.52;5.88;;;;;;;;;;5027318;28;20464;-84
2022/03/07 00:50:59;;;;;;;9.20;5.90;;;;;;;;;;5032092;28;20068;-88
2022/03/07 00:53:26;;;;;;;8.38;5.53;;;;;;;;;;5029065;28;20501;-88
2022/03/07 00:55:53;;;;;;;8.70;5.53;;;;;;;;;;5028148;28;20027;-84
2022/03/07 00:58:18;;;;;;;10.80;6.00;;;;;;;;;;5029293;28;20044;-84
2022/03/07 01:00:44;;;;;;;9.70;5.85;;;;;;;;;;5033383;28;20025;-88
2022/03/07 01:03:12;;;;;;;9.55;5.25;;;;;;;;;;5034688;28;20125;-84
2022/03/07 01:05:39;;;;;;;8.50;5.68;;;;;;;;;;5032098;28;20026;-87
2022/03/07 01:08:05;;;;;;;10.57;6.05;;;;;;;;;;5037274;28;20025;-87
2022/03/07 01:10:30;;;;;;;9.25;5.82;;;;;;;;;;5033662;28;20032;-87
2022/03/07 01:12:55;;;;;;;8.35;5.80;;;;;;;;;;5024135;28;20482;-86
2022/03/07 01:15:21;;;;;;;9.65;5.75;;;;;;;;;;5026127;28;20418;-84
2022/03/07 01:17:47;;;;;;;10.45;5.57;;;;;;;;;;5028656;28;20092;-87
2022/03/07 01:20:12;;;;;;;8.20;5.57;;;;;;;;;;5020056;28;20030;-85
2022/03/07 01:22:38;;;;;;;9.43;5.47;;;;;;;;;;5028695;28;20120;-86
2022/03/07 01:25:05;;;;;;;9.40;5.35;;;;;;;;;;5032668;28;20033;-84
2022/03/07 01:27:32;;;;;;;9.65;5.82;;;;;;;;;;5019087;28;20120;-87
2022/03/07 01:29:57;;;;;;;8.32;5.43;;;;;;;;;;5023601;28;20022;-86
2022/03/07 01:32:23;;;;;;;9.40;5.57;;;;;;;;;;5030990;28;20486;-84
2022/03/07 01:34:48;;;;;;;9.48;5.70;;;;;;;;;;5027148;28;20049;-85
2022/03/07 01:37:14;;;;;;;10.35;5.80;;;;;;;;;;5028165;28;20025;-87
2022/03/07 01:39:39;;;;;;;11.05;6.10;;;;;;;;;;5026060;28;20109;-88
2022/03/07 01:42:05;;;;;;;8.35;5.25;;;;;;;;;;5029244;28;20082;-88
2022/03/07 01:44:31;;;;;;;7.82;5.20;;;;;;;;;;5038065;28;20036;-86
2022/03/07 01:46:57;;;;;;;8.57;5.43;;;;;;;;;;5031711;28;20386;-88
2022/03/07 01:49:23;;;;;;;8.07;5.47;;;;;;;;;;5031257;28;20024;-84
2022/03/07 01:51:49;;;;;;;8.52;5.70;;;;;;;;;;5031995;28;20029;-87
2022/03/07 01:54:17;;;;;;;8.65;5.60;;;;;;;;;;5029701;28;20028;-88
2022/03/07 01:56:45;;;;;;;9.80;5.72;;;;;;;;;;5025623;28;20030;-85
2022/03/07 01:59:17;;;;;;;9.48;6.05;;;;;;;;;;5029494;28;20604;-85
2022/03/07 02:01:43;;;;;;;11.02;5.72;;;;;;;;;;5025638;28;20029;-88
2022/03/07 02:04:10;;;;;;;7.88;5.68;;;;;;;;;;5041446;28;20064;-85
2022/03/07 02:06:36;;;;;;;10.45;5.70;;;;;;;;;;5028841;28;20389;-87
2022/03/07 02:09:02;;;;;;;10.32;5.70;;;;;;;;;;5031281;28;20025;-83
2022/03/07 02:11:28;;;;;;;8.40;5.82;;;;;;;;;;5021819;28;20051;-83
2022/03/07 02:13:53;;;;;;;7.75;5.47;;;;;;;;;;5030370;28;20512;-84
2022/03/07 02:16:19;;;;;;;9.73;5.50;;;;;;;;;;5027896;28;20036;-85
2022/03/07 02:18:46;;;;;;;8.18;5.38;;;;;;;;;;5029056;28;20026;-83
2022/03/07 02:21:14;;;;;;;9.18;5.50;;;;;;;;;;5028555;28;20041;-84
2022/03/07 02:23:39;;;;;;;10.00;5.45;;;;;;;;;;5035044;28;20445;-83
2022/03/07 02:26:17;;;;;;;9.18;6.25;;;;;;;;;;5026127;28;20045;-84
2022/03/07 02:28:44;;;;;;;9.75;5.93;;;;;;;;;;5021229;28;20530;-84
2022/03/07 02:31:10;;;;;;;8.25;5.63;;;;;;;;;;5021119;28;20117;-86
2022/03/07 02:33:36;;;;;;;8.13;5.38;;;;;;;;;;5033486;28;20126;-83
2022/03/07 02:36:03;;;;;;;8.88;5.95;;;;;;;;;;5007470;28;20822;-83
2022/03/07 02:38:28;;;;;;;9.73;5.60;;;;;;;;;;5014166;28;20033;-83
2022/03/07 02:40:53;;;;;;;9.13;5.70;;;;;;;;;;5014604;28;20430;-87
2022/03/07 02:43:19;;;;;;;9.50;6.28;;;;;;;;;;5014397;28;20637;-86
2022/03/07 02:45:45;;;;;;;7.55;5.32;;;;;;;;;;5014800;28;20574;-86
2022/03/07 02:48:10;;;;;;;8.63;5.70;;;;;;;;;;5036875;28;20478;-87
2022/03/07 02:50:36;;;;;;;9.63;5.65;;;;;;;;;;5008311;28;20498;-83
2022/03/07 02:53:02;;;;;;;8.75;5.47;;;;;;;;;;5006999;28;20033;-83
2022/03/07 02:55:27;;;;;;;7.53;5.10;;;;;;;;;;5002401;28;20131;-84
2022/03/07 02:57:53;;;;;;;8.02;5.63;;;;;;;;;;5003965;28;20111;-86
2022/03/07 03:00:19;;;;;;;8.10;5.72;;;;;;;;;;5012849;28;20132;-85
2022/03/07 03:02:44;;;;;;;9.85;5.63;;;;;;;;;;5015154;28;20474;-85
2022/03/07 03:05:10;;;;;;;8.45;5.70;;;;;;;;;;5015129;28;20056;-84
2022/03/07 03:07:35;;;;;;;10.13;6.13;;;;;;;;;;5032067;28;20037;-84
2022/03/07 03:10:00;;;;;;;9.38;5.90;;;;;;;;;;5009769;28;20040;-87
2022/03/07 03:12:27;;;;;;;8.77;5.13;;;;;;;;;;5014383;28;20425;-87
2022/03/07 03:14:53;;;;;;;11.20;5.93;;;;;;;;;;5022347;28;20386;-84
2022/03/07 03:17:19;;;;;;;7.72;5.63;;;;;;;;;;5004397;28;20033;-84
2022/03/07 03:19:44;;;;;;;8.90;6.10;;;;;;;;;;5013723;28;20030;-87
2022/03/07 03:22:10;;;;;;;9.05;6.70;;;;;;;;;;5009529;28;20072;-83
2022/03/07 03:24:35;;;;;;;9.02;5.90;;;;;;;;;;5003598;28;20501;-86
2022/03/07 03:27:00;;;;;;;8.70;5.65;;;;;;;;;;5014237;28;20088;-84
2022/03/07 03:29:26;;;;;;;10.00;5.97;;;;;;;;;;5005327;28;20017;-83
2022/03/07 03:31:51;;;;;;;9.07;6.13;;;;;;;;;;5012551;28;20124;-87
2022/03/07 03:34:17;;;;;;;8.18;5.72;;;;;;;;;;5011618;28;20060;-87
2022/03/07 03:36:42;;;;;;;9.25;5.90;;;;;;;;;;5028894;28;20112;-83
2022/03/07 03:39:08;;;;;;;8.32;5.82;;;;;;;;;;5022288;28;20592;-86
2022/03/07 03:41:33;;;;;;;9.95;6.22;;;;;;;;;;5027717;28;20036;-84
2022/03/07 03:43:58;;;;;;;8.90;5.78;;;;;;;;;;5023233;28;20025;-86
2022/03/07 03:46:24;;;;;;;9.55;6.30;;;;;;;;;;5028075;28;20037;-85
2022/03/07 03:48:49;;;;;;;9.63;6.07;;;;;;;;;;5024716;28;20033;-88
2022/03/07 03:51:14;;;;;;;10.68;6.53;;;;;;;;;;5023608;28;20021;-86
2022/03/07 03:53:40;;;;;;;8.20;5.78;;;;;;;;;;5023702;28;20120;-84
2022/03/07 03:56:05;;;;;;;8.55;5.55;;;;;;;;;;5022070;28;20033;-83
2022/03/07 03:58:31;;;;;;;8.95;6.07;;;;;;;;;;5020079;28;20088;-86
2022/03/07 04:00:56;;;;;;;9.10;5.93;;;;;;;;;;5028410;28;20032;-85
2022/03/07 04:03:21;;;;;;;10.27;6.30;;;;;;;;;;5021408;28;20470;-88
2022/03/07 04:05:47;;;;;;;10.23;6.07;;;;;;;;;;5030761;28;20033;-88
2022/03/07 04:08:12;;;;;;;9.88;6.00;;;;;;;;;;5024299;28;20029;-88
2022/03/07 04:10:37;;;;;;;9.57;6.20;;;;;;;;;;5024889;28;20083;-83
2022/03/07 04:13:03;;;;;;;8.48;5.88;;;;;;;;;;5028282;28;20029;-87
2022/03/07 04:15:28;;;;;;;9.10;6.28;;;;;;;;;;5021208;28;20398;-86
2022/03/07 04:17:54;;;;;;;9.63;6.20;;;;;;;;;;5023899;28;20026;-86
2022/03/07 04:20:19;;;;;;;9.45;6.40;;;;;;;;;;5033225;28;20046;-85
2022/03/07 04:22:45;;;;;;;10.02;6.50;;;;;;;;;;5023529;28;20481;-85
2022/03/07 04:25:12;;;;;;;9.43;6.32;;;;;;;;;;5020909;28;20069;-86
2022/03/07 04:27:37;;;;;;;8.75;6.07;;;;;;;;;;5032353;28;20024;-83
2022/03/07 04:30:05;;;;;;;10.30;6.13;;;;;;;;;;5029799;28;20025;-87
2022/03/07 04:32:33;;;;;;;10.50;5.93;;;;;;;;;;5035626;28;20033;-86
2022/03/07 04:34:59;;;;;;;11.75;6.63;;;;;;;;;;5033572;28;20053;-84
2022/03/07 04:37:25;;;;;;;11.00;6.60;;;;;;;;;;5020480;28;20030;-85
2022/03/07 04:39:50;;;;;;;10.18;6.50;;;;;;;;;;5042356;28;20470;-84
2022/03/07 04:42:15;;;;;;;10.82;6.60;;;;;;;;;;5034318;28;20046;-86
2022/03/07 04:44:41;;;;;;;10.02;6.03;;;;;;;;;;5025099;28;20112;-86
2022/03/07 04:47:06;;;;;;;9.93;6.45;;;;;;;;;;5030305;28;20045;-84
2022/03/07 04:49:31;;;;;;;10.82;6.53;;;;;;;;;;5030823;28;20021;-86
2022/03/07 04:51:57;;;;;;;11.88;6.40;;;;;;;;;;5035754;28;20024;-88
2022/03/07 04:54:22;;;;;;;8.73;5.90;;;;;;;;;;5033903;28;20036;-84
2022/03/07 04:56:50;;;;;;;10.07;6.53;;;;;;;;;;5038993;28;20090;-84
2022/03/07 04:59:15;;;;;;;10.20;6.63;;;;;;;;;;5035224;28;20030;-87
2022/03/07 05:01:41;;;;;;;12.20;6.32;;;;;;;;;;5031683;28;20040;-83
2022/03/07 05:04:06;;;;;;;10.63;6.85;;;;;;;;;;5031106;28;20107;-86
2022/03/07 05:06:32;;;;;;;12.20;6.20;;;;;;;;;;5029432;28;20605;-84
2022/03/07 05:08:57;;;;;;;9.15;6.50;;;;;;;;;;5034012;28;20022;-86
2022/03/07 05:11:23;;;;;;;9.48;6.50;;;;;;;;;;5023119;28;20120;-86
2022/03/07 05:13:48;;;;;;;9.93;5.97;;;;;;;;;;5025111;28;20045;-83
2022/03/07 05:16:14;;;;;;;10.43;6.47;;;;;;;;;;5038421;28;21367;-88
2022/03/07 05:18:39;;;;;;;9.25;6.15;;;;;;;;;;5030049;28;20462;-86
2022/03/07 05:21:04;;;;;;;9.82;6.05;;;;;;;;;;5022692;28;20025;-87
2022/03/07 05:23:30;;;;;;;11.77;6.80;;;;;;;;;;5027861;28;20021;-87
2022/03/07 05:25:55;;;;;;;11.25;5.95;;;;;;;;;;5024090;28;20037;-87
2022/03/07 05:28:21;;;;;;;11.90;7.20;;;;;;;;;;5028300;28;20025;-86
2022/03/07 05:30:46;;;;;;;11.50;7.70;;;;;;;;;;5029755;28;20021;-87
2022/03/07 05:33:12;;;;;;;11.20;6.28;;;;;;;;;;5020334;28;20132;-87
2022/03/07 05:35:37;;;;;;;13.88;7.68;;;;;;;;;;5029640;28;20107;-83
2022/03/07 05:38:04;;;;;;;11.10;6.97;;;;;;;;;;5029480;28;20120;-84
2022/03/07 05:40:29;;;;;;;10.20;7.20;;;;;;;;;;5037884;28;20391;-87
2022/03/07 05:42:56;;;;;;;12.25;6.97;;;;;;;;;;5033465;28;20113;-82
2022/03/07 05:45:21;;;;;;;11.52;7.40;;;;;;;;;;5030972;28;20120;-88
2022/03/07 05:47:46;;;;;;;10.43;6.63;;;;;;;;;;5029098;28;20105;-84
2022/03/07 05:50:13;;;;;;;9.98;7.00;;;;;;;;;;5021957;28;20022;-86
2022/03/07 05:52:38;;;;;;;10.80;6.82;;;;;;;;;;5028842;28;20474;-86
2022/03/07 05:55:06;;;;;;;10.65;7.40;;;;;;;;;;5029151;28;20031;-87
2022/03/07 05:57:32;;;;;;;11.15;6.97;;;;;;;;;;5035077;28;20373;-84
2022/03/07 05:59:57;;;;;;;13.10;7.60;;;;;;;;;;5026961;28;20032;-83
2022/03/07 06:02:22;;;;;;;12.07;7.60;;;;;;;;;;5022511;28;20033;-83
2022/03/07 06:04:48;;;;;;;12.45;7.75;;;;;;;;;;5027996;28;20025;-87
2022/03/07 06:07:13;;;;;;;14.15;6.95;;;;;;;;;;5025956;28;20036;-83
2022/03/07 06:09:39;;;;;;;12.75;7.20;;;;;;;;;;5028883;28;20021;-87
2022/03/07 06:12:06;;;;;;;13.35;7.47;;;;;;;;;;5023914;28;20140;-84
2022/03/07 06:14:31;;;;;;;12.10;7.32;;;;;;;;;;5030309;28;20017;-86
2022/03/07 06:16:57;;;;;;;11.60;7.45;;;;;;;;;;5028909;28;20092;-87
2022/03/07 06:19:23;;;;;;;12.23;7.53;;;;;;;;;;5021768;28;20030;-83
2022/03/07 06:21:48;;;;;;;11.75;7.68;;;;;;;;;;5027307;28;20367;-83
2022/03/07 06:24:14;;;;;;;10.70;7.38;;;;;;;;;;5021600;28;20040;-86
2022/03/07 06:26:42;;;;;;;11.80;7.55;;;;;;;;;;5026610;28;20033;-83
2022/03/07 06:29:08;;;;;;;13.85;7.47;;;;;;;;;;5024124;28;20025;-83
2022/03/07 06:31:33;;;;;;;12.90;8.23;;;;;;;;;;5028033;28;20143;-87
2022/03/07 06:33:59;;;;;;;17.23;8.32;;;;;;;;;;5021892;28;20041;-87
2022/03/07 06:36:24;;;;;;;14.27;8.70;;;;;;;;;;5026835;28;20159;-86
2022/03/07 06:38:51;;;;;;;12.82;7.97;;;;;;;;;;5027182;28;20021;-87
2022/03/07 06:41:16;;;;;;;14.32;8.63;;;;;;;;;;5030990;28;20051;-84
2022/03/07 06:43:48;;;;;;;13.93;8.30;;;;;;;;;;5028428;28;20026;-87
2022/03/07 06:46:13;;;;;;;12.75;7.85;;;;;;;;;;5019174;28;20030;-87
2022/03/07 06:48:41;;;;;;;11.95;8.10;;;;;;;;;;5021905;28;20034;-87
2022/03/07 06:51:07;;;;;;;12.98;7.78;;;;;;;;;;5027642;28;20022;-87
2022/03/07 06:53:32;;;;;;;11.82;7.75;;;;;;;;;;5025118;28;20486;-82
2022/03/07 06:55:58;;;;;;;12.23;7.93;;;;;;;;;;5027595;28;20068;-84
2022/03/07 06:58:23;;;;;;;13.15;8.38;;;;;;;;;;5019605;28;20474;-82
2022/03/07 07:00:48;;;;;;;13.27;8.60;;;;;;;;;;5028049;28;20518;-86
2022/03/07 07:03:14;;;;;;;15.70;8.85;;;;;;;;;;5018270;28;20482;-83
2022/03/07 07:05:39;;;;;;;12.98;8.40;;;;;;;;;;5018627;28;20021;-88
2022/03/07 07:08:04;;;;;;;13.95;7.90;;;;;;;;;;5027844;28;20382;-86
2022/03/07 07:10:30;;;;;;;12.00;8.18;;;;;;;;;;5029506;28;20109;-83
2022/03/07 07:12:55;;;;;;;14.05;7.40;;;;;;;;;;5016520;28;20053;-84
2022/03/07 07:15:21;;;;;;;13.25;8.13;;;;;;;;;;5034192;28;20032;-87
2022/03/07 07:17:46;;;;;;;14.18;8.75;;;;;;;;;;5023897;28;20112;-87
2022/03/07 07:20:13;;;;;;;13.45;8.15;;;;;;;;;;5026798;28;20021;-86
2022/03/07 07:22:39;;;;;;;14.13;8.50;;;;;;;;;;5025629;28;20463;-84
2022/03/07 07:25:06;;;;;;;13.95;8.85;;;;;;;;;;5017569;28;20031;-86
2022/03/07 07:27:31;;;;;;;14.90;8.45;;;;;;;;;;5016060;28;20037;-86
2022/03/07 07:29:57;;;;;;;14.70;9.02;;;;;;;;;;5019082;28;20408;-87
2022/03/07 07:32:23;;;;;;;17.45;8.75;;;;;;;;;;5023364;28;20022;-84
2022/03/07 07:34:48;;;;;;;12.85;8.48;;;;;;;;;;5027090;28;20397;-86
2022/03/07 07:37:14;;;;;;;14.15;10.00;;;;;;;;;;5018366;28;20030;-84
2022/03/07 07:39:39;;;;;;;18.45;9.52;;;;;;;;;;5027731;28;20025;-88
2022/03/07 07:42:04;;;;;;;13.68;9.38;;;;;;;;;;5031860;28;20021;-85
2022/03/07 07:44:30;;;;;;;14.90;9.82;;;;;;;;;;5025441;28;20064;-83
2022/03/07 07:46:55;;;;;;;13.82;8.80;;;;;;;;;;5030541;28;20053;-87
2022/03/07 07:49:24;;;;;;;15.32;9.10;;;;;;;;;;5031443;28;20030;-84
2022/03/07 07:51:51;;;;;;;14.93;8.85;;;;;;;;;;5027116;28;20025;-88
2022/03/07 07:54:16;;;;;;;14.05;9.30;;;;;;;;;;5016741;28;20446;-86
2022/03/07 07:56:42;;;;;;;16.90;9.25;;;;;;;;;;5025459;28;20111;-83
2022/03/07 07:59:07;;;;;;;12.80;8.65;;;;;;;;;;5025631;28;20060;-84
2022/03/07 08:01:33;;;;;;;15.55;9.00;;;;;;;;;;5033240;28;20425;-84
2022/03/07 08:03:58;;;;;;;14.10;8.85;;;;;;;;;;5028848;28;20033;-86
2022/03/07 08:06:27;;;;;;;16.15;9.55;;;;;;;;;;5030241;28;20029;-87
2022/03/07 08:08:52;;;;;;;13.32;8.45;;;;;;;;;;5030001;28;20013;-84
2022/03/07 08:11:17;;;;;;;16.02;9.38;;;;;;;;;;5026601;28;20379;-83
2022/03/07 08:13:43;;;;;;;14.45;9.48;;;;;;;;;;5025895;28;20021;-87
2022/03/07 08:16:08;;;;;;;16.30;8.70;;;;;;;;;;5021846;28;20044;-86
2022/03/07 08:18:34;;;;;;;14.95;8.73;;;;;;;;;;5033582;28;20025;-84
2022/03/07 08:21:00;;;;;;;19.08;10.10;;;;;;;;;;5033990;28;20132;-86
2022/03/07 08:23:26;;;;;;;14.73;10.23;;;;;;;;;;5027157;28;20052;-83
2022/03/07 08:25:51;;;;;;;16.58;9.25;;;;;;;;;;5028242;28;20075;-85
2022/03/07 08:28:17;;;;;;;14.45;9.68;;;;;;;;;;5021891;28;20120;-83
2022/03/07 08:30:42;;;;;;;16.13;9.85;;;;;;;;;;5026448;28;20014;-87
2022/03/07 08:33:07;;;;;;;13.20;9.23;;;;;;;;;;5029342;28;20036;-85
2022/03/07 08:35:33;;;;;;;14.60;9.25;;;;;;;;;;5021498;28;20046;-88
2022/03/07 08:37:59;;;;;;;15.27;9.27;;;;;;;;;;5023559;28;20059;-84
2022/03/07 08:40:25;;;;;;;13.95;8.23;;;;;;;;;;5027089;28;20037;-85
2022/03/07 08:42:51;;;;;;;14.23;9.18;;;;;;;;;;5032151;28;20068;-82
2022/03/07 08:45:16;;;;;;;14.88;9.52;;;;;;;;;;5029821;28;20033;-88
2022/03/07 08:47:42;;;;;;;15.70;8.45;;;;;;;;;;5029875;28;20029;-83
2022/03/07 08:50:09;;;;;;;15.00;8.98;;;;;;;;;;5025723;28;20099;-84
2022/03/07 08:52:36;;;;;;;13.32;8.95;;;;;;;;;;5048282;28;20036;-86
2022/03/07 08:55:02;;;;;;;17.95;9.00;;;;;;;;;;5032425;28;20025;-87
2022/03/07 08:57:28;;;;;;;14.57;8.90;;;;;;;;;;5031129;28;20032;-83
2022/03/07 08:59:53;;;;;;;13.48;9.23;;;;;;;;;;5026140;28;20029;-85
2022/03/07 09:02:19;;;;;;;13.85;8.93;;;;;;;;;;5033345;28;20040;-88
2022/03/07 09:04:44;;;;;;;15.02;8.57;;;;;;;;;;5024516;28;20025;-88
2022/03/07 09:07:10;;;;;;;12.60;8.45;;;;;;;;;;5025771;28;20029;-84
2022/03/07 09:09:35;;;;;;;13.43;8.77;;;;;;;;;;5033354;28;20025;-86
2022/03/07 09:12:02;;;;;;;12.43;8.65;;;;;;;;;;5023847;28;20496;-81
2022/03/07 09:14:28;;;;;;;13.18;8.57;;;;;;;;;;5024628;28;20478;-87
2022/03/07 09:16:54;;;;;;;12.43;8.23;;;;;;;;;;5022988;28;20113;-84
2022/03/07 09:19:19;;;;;;;13.63;8.65;;;;;;;;;;5027554;28;20029;-84
2022/03/07 09:21:44;;;;;;;16.02;8.77;;;;;;;;;;5030084;28;20045;-89
2022/03/07 09:24:10;;;;;;;13.73;8.27;;;;;;;;;;5022187;28;20070;-89
2022/03/07 09:26:35;;;;;;;11.52;7.72;;;;;;;;;;5026836;28;20029;-87
2022/03/07 09:29:01;;;;;;;9.77;7.07;;;;;;;;;;5031463;28;20017;-84
2022/03/07 09:31:27;;;;;;;10.48;7.03;;;;;;;;;;5023335;28;20021;-92
2022/03/07 09:33:52;;;;;;;9.35;6.65;;;;;;;;;;5031690;28;20032;-90
2022/03/07 09:36:19;;;;;;;12.02;7.30;;;;;;;;;;5032323;28;20041;-92
2022/03/07 09:38:44;;;;;;;9.40;6.30;;;;;;;;;;5033357;28;20033;-91
2022/03/07 09:41:10;;;;;;;11.95;7.13;;;;;;;;;;5031866;28;20040;-91
2022/03/07 09:43:36;;;;;;;13.63;6.40;;;;;;;;;;5030891;28;20405;-84
2022/03/07 09:46:02;;;;;;;8.75;5.70;;;;;;;;;;5031761;28;20021;-84
2022/03/07 09:48:27;;;;;;;10.02;5.75;;;;;;;;;;5031635;28;20029;-90
2022/03/07 09:50:53;;;;;;;9.07;5.75;;;;;;;;;;5035059;28;20025;-89
2022/03/07 09:53:19;;;;;;;8.18;5.45;;;;;;;;;;5027214;28;20029;-84
2022/03/07 09:55:45;;;;;;;9.25;4.75;;;;;;;;;;5029201;28;20087;-90
2022/03/07 09:58:12;;;;;;;7.93;4.57;;;;;;;;;;5034571;28;20025;-90
2022/03/07 10:00:41;;;;;;;7.63;5.10;;;;;;;;;;5032083;28;20112;-85
2022/03/07 10:03:15;;;;;;;7.90;5.15;;;;;;;;;;5030531;28;20060;-90
2022/03/07 10:05:44;;;;;;;9.50;5.72;;;;;;;;;;5028594;28;20083;-89
2022/03/07 10:08:11;;;;;;;7.55;5.18;;;;;;;;;;5029407;28;20402;-87
2022/03/07 10:10:41;;;;;;;8.18;5.30;;;;;;;;;;5028144;28;20044;-87
2022/03/07 10:13:09;;;;;;;7.35;5.00;;;;;;;;;;5027202;28;20123;-85
2022/03/07 10:15:35;;;;;;;7.93;5.05;;;;;;;;;;5027157;28;20060;-92
2022/03/07 10:18:01;;;;;;;7.97;5.20;;;;;;;;;;5022145;28;20034;-85
2022/03/07 10:20:26;;;;;;;8.18;5.18;;;;;;;;;;5029622;28;20030;-86
2022/03/07 10:22:55;;;;;;;8.40;5.38;;;;;;;;;;5029127;28;20053;-87
2022/03/07 10:25:30;;;;;;;6.93;5.10;;;;;;;;;;5032813;28;20022;-89
2022/03/07 10:27:59;;;;;;;7.55;4.93;;;;;;;;;;5027473;28;20026;-88
2022/03/07 10:30:27;;;;;;;9.35;5.22;;;;;;;;;;5033385;28;20116;-90
2022/03/07 10:32:56;;;;;;;9.68;5.30;;;;;;;;;;5027134;28;20068;-87
2022/03/07 10:35:30;;;;;;;7.90;5.30;;;;;;;;;;5028143;28;20045;-90
2022/03/07 10:38:01;;;;;;;7.50;5.13;;;;;;;;;;5040382;28;20479;-88
2022/03/07 10:40:27;;;;;;;8.05;5.35;;;;;;;;;;5031156;28;20037;-89
2022/03/07 10:42:54;;;;;;;7.22;5.28;;;;;;;;;;5008798;28;20045;-88
2022/03/07 10:45:21;;;;;;;10.35;5.50;;;;;;;;;;5025953;28;20075;-88
2022/03/07 10:47:55;;;;;;;10.80;5.30;;;;;;;;;;5026575;28;20021;-87
2022/03/07 10:50:22;;;;;;;9.90;5.43;;;;;;;;;;5028434;28;20021;-89
2022/03/07 10:52:48;;;;;;;10.73;5.57;;;;;;;;;;5026310;28;20040;-86
2022/03/07 10:55:13;;;;;;;7.88;5.72;;;;;;;;;;5024538;28;20037;-90
2022/03/07 10:57:41;;;;;;;7.97;5.25;;;;;;;;;;5026703;28;20029;-88
2022/03/07 11:00:13;;;;;;;8.23;5.45;;;;;;;;;;5027541;28;20171;-87
2022/03/07 11:02:44;;;;;;;7.80;5.47;;;;;;;;;;5029093;28;20036;-88
2022/03/07 11:05:11;;;;;;;7.65;5.07;;;;;;;;;;5030069;28;20044;-90
2022/03/07 11:07:45;;;;;;;9.07;5.57;;;;;;;;;;5030123;28;20037;-90
2022/03/07 11:10:12;;;;;;;8.35;5.78;;;;;;;;;;5028850;28;20036;-87
2022/03/07 11:12:39;;;;;;;9.60;6.18;;;;;;;;;;5022793;28;20374;-90
2022/03/07 11:15:09;;;;;;;8.20;5.18;;;;;;;;;;5027939;28;20028;-91
2022/03/07 11:17:44;;;;;;;7.55;5.00;;;;;;;;;;5029330;28;20032;-90
2022/03/07 11:20:12;;;;;;;7.22;4.97;;;;;;;;;;5029631;28;20029;-90
2022/03/07 11:22:38;;;;;;;8.38;5.35;;;;;;;;;;5027778;28;20025;-87
2022/03/07 11:25:06;;;;;;;8.05;5.03;;;;;;;;;;5028406;28;20028;-87
2022/03/07 11:27:32;;;;;;;8.15;4.93;;;;;;;;;;5027290;28;20070;-90
2022/03/07 11:29:58;;;;;;;7.65;5.47;;;;;;;;;;5029434;28;20101;-84
2022/03/07 11:32:23;;;;;;;8.48;5.10;;;;;;;;;;5030202;28;20125;-90
2022/03/07 11:34:58;;;;;;;10.27;5.35;;;;;;;;;;5028872;28;20061;-87
2022/03/07 11:37:29;;;;;;;8.25;4.85;;;;;;;;;;5030878;28;20029;-86
2022/03/07 11:39:58;;;;;;;7.75;4.80;;;;;;;;;;5040650;28;20033;-85
2022/03/07 11:42:34;;;;;;;8.95;5.55;;;;;;;;;;5035078;28;20079;-88
2022/03/07 11:45:09;;;;;;;10.98;5.85;;;;;;;;;;5032911;28;20051;-91
2022/03/07 11:47:37;;;;;;;7.97;5.30;;;;;;;;;;5032382;28;20413;-86
2022/03/07 11:50:03;;;;;;;10.05;5.90;;;;;;;;;;5034483;28;20024;-86
2022/03/07 11:52:31;;;;;;;9.40;5.20;;;;;;;;;;5031109;28;20048;-90
2022/03/07 11:55:00;;;;;;;8.40;5.53;;;;;;;;;;5037033;28;20025;-90
2022/03/07 11:57:37;;;;;;;9.32;5.43;;;;;;;;;;5039520;28;20515;-86
2022/03/07 12:00:13;;;;;;;7.70;5.18;;;;;;;;;;5035476;28;20053;-89
2022/03/07 12:02:41;;;;;;;7.20;5.40;;;;;;;;;;5031072;28;20071;-87
2022/03/07 12:05:24;;;;;;;9.07;5.35;;;;;;;;;;5029981;28;20094;-91
2022/03/07 12:07:51;;;;;;;10.05;4.95;;;;;;;;;;5032329;28;20029;-86
2022/03/07 12:10:16;;;;;;;8.38;5.55;;;;;;;;;;5032178;28;20065;-87
2022/03/07 12:12:42;;;;;;;8.65;6.13;;;;;;;;;;5028609;28;20067;-87
2022/03/07 12:15:13;;;;;;;11.32;6.53;;;;;;;;;;5032599;28;20025;-91
2022/03/07 12:17:38;;;;;;;9.52;5.82;;;;;;;;;;5031362;28;20083;-91
2022/03/07 12:20:05;;;;;;;11.00;5.95;;;;;;;;;;5027951;28;20025;-85
2022/03/07 12:22:32;;;;;;;8.55;6.32;;;;;;;;;;5025564;28;20021;-88
2022/03/07 12:25:04;;;;;;;10.80;6.30;;;;;;;;;;5033476;28;20409;-89
2022/03/07 12:27:33;;;;;;;8.52;5.88;;;;;;;;;;5024975;28;20484;-86
2022/03/07 12:29:59;;;;;;;10.60;6.05;;;;;;;;;;5032981;28;20153;-91
2022/03/07 12:32:24;;;;;;;8.00;5.97;;;;;;;;;;5034280;28;20030;-91
2022/03/07 12:34:50;;;;;;;10.45;6.15;;;;;;;;;;5033531;28;20098;-86
2022/03/07 12:37:20;;;;;;;9.68;6.35;;;;;;;;;;5032368;28;20037;-93
2022/03/07 12:39:48;;;;;;;11.18;5.95;;;;;;;;;;5033078;28;20513;-90
2022/03/07 12:42:16;;;;;;;8.18;5.60;;;;;;;;;;5027906;28;20034;-86
2022/03/07 12:44:42;;;;;;;9.38;6.05;;;;;;;;;;5032279;28;20025;-86
2022/03/07 12:47:09;;;;;;;9.65;6.18;;;;;;;;;;5031797;28;20097;-93
2022/03/07 12:49:34;;;;;;;8.63;6.05;;;;;;;;;;5032767;28;20520;-92
2022/03/07 12:52:04;;;;;;;8.40;5.80;;;;;;;;;;5032716;28;20037;-92
2022/03/07 12:54:34;;;;;;;8.05;5.93;;;;;;;;;;5029300;28;20029;-85
2022/03/07 12:57:01;;;;;;;7.97;5.65;;;;;;;;;;5032230;28;20477;-91
2022/03/07 12:59:28;;;;;;;9.80;5.78;;;;;;;;;;5031456;28;20047;-85
2022/03/07 13:01:55;;;;;;;9.25;6.18;;;;;;;;;;5030613;28;20549;-86
2022/03/07 13:04:25;;;;;;;9.82;5.68;;;;;;;;;;5031687;28;20033;-87
2022/03/07 13:06:52;;;;;;;10.70;6.50;;;;;;;;;;5030351;28;20263;-90
2022/03/07 13:09:20;;;;;;;8.02;5.80;;;;;;;;;;5033197;28;20030;-88
2022/03/07 13:11:51;;;;;;;8.25;5.55;;;;;;;;;;5032167;28;20026;-85
2022/03/07 13:14:20;;;;;;;8.02;5.68;;;;;;;;;;5029967;28;20437;-86
2022/03/07 13:16:46;;;;;;;8.52;5.60;;;;;;;;;;5028517;28;20482;-83
2022/03/07 13:19:12;;;;;;;9.80;5.97;;;;;;;;;;5033030;28;20079;-92
2022/03/07 13:21:43;;;;;;;8.82;5.93;;;;;;;;;;5029071;28;20029;-84
2022/03/07 13:24:10;;;;;;;8.82;5.88;;;;;;;;;;5032547;28;20097;-83
2022/03/07 13:26:36;;;;;;;7.40;5.53;;;;;;;;;;5029467;28;20071;-84
2022/03/07 13:29:06;;;;;;;9.75;5.57;;;;;;;;;;5032106;28;20039;-86
2022/03/07 13:31:46;;;;;;;7.80;5.28;;;;;;;;;;5032289;28;20022;-86
2022/03/07 13:34:14;;;;;;;7.72;5.65;;;;;;;;;;5023079;28;20117;-86
2022/03/07 13:36:42;;;;;;;7.95;5.60;;;;;;;;;;5012552;28;20037;-90
2022/03/07 13:39:24;;;;;;;7.85;5.47;;;;;;;;;;5011365;28;20029;-86
2022/03/07 13:42:06;;;;;;;8.10;5.32;;;;;;;;;;5012816;28;20033;-90
2022/03/07 13:44:34;;;;;;;9.25;6.40;;;;;;;;;;5013107;28;20026;-88
2022/03/07 13:47:07;;;;;;;8.25;5.45;;;;;;;;;;5014383;28;20553;-86
2022/03/07 13:49:49;;;;;;;7.50;5.13;;;;;;;;;;5012608;28;20029;-88
2022/03/07 13:52:22;;;;;;;8.45;5.28;;;;;;;;;;5009087;28;20030;-86
2022/03/07 13:54:49;;;;;;;7.57;5.23;;;;;;;;;;5011414;28;20025;-86
2022/03/07 13:57:16;;;;;;;8.32;5.25;;;;;;;;;;5032667;28;20254;-86
2022/03/07 14:00:16;;;;;;;8.02;5.97;;;;;;;;;;5015347;28;20056;-90
2022/03/07 14:02:55;;;;;;;8.10;5.43;;;;;;;;;;5007612;28;20057;-91
2022/03/07 14:05:21;;;;;;;9.20;5.68;;;;;;;;;;5011700;28;20474;-85
2022/03/07 14:07:48;;;;;;;7.75;5.40;;;;;;;;;;5012753;28;20023;-90
2022/03/07 14:10:16;;;;;;;8.75;6.03;;;;;;;;;;5012735;28;20079;-84
2022/03/07 14:12:49;;;;;;;9.20;5.60;;;;;;;;;;5008269;28;20057;-86
2022/03/07 14:15:14;;;;;;;;;;;;;;;;;;5025855;28;20034;-90
2022/03/07 14:17:40;;;;;;;8.63;5.40;;;;;;;;;;5012346;28;20380;-90
2022/03/07 14:20:09;;;;;;;9.55;5.45;;;;;;;;;;5013788;28;20029;-86
2022/03/07 14:22:36;;;;;;;10.73;5.72;;;;;;;;;;5009718;28;20029;-86
2022/03/07 14:25:04;;;;;;;11.75;6.63;;;;;;;;;;5010856;28;20028;-90
2022/03/07 14:27:32;;;;;;;8.15;5.68;;;;;;;;;;5008156;28;20522;-85
2022/03/07 14:30:01;;;;;;;12.43;6.45;;;;;;;;;;5011970;28;20052;-91
2022/03/07 14:32:27;;;;;;;9.60;5.85;;;;;;;;;;5005306;28;20055;-85
2022/03/07 14:34:55;;;;;;;8.95;6.68;;;;;;;;;;5016806;28;20049;-91